sensor_id;sensor_type;location;lat;lon;timestamp;P1;durP1;ratioP1;P2;durP2;ratioP2
2972;SDS011;1496;51.404;7.232;2024-03-25T00:01:49;23.90;;;3.70;;
2972;SDS011;1496;51.404;7.232;2024-03-25T00:04:14;10.97;;;4.10;;
2972;SDS011;1496;51.404;7.232;2024-03-25T00:06:40;12.00;;;4.13;;
2972;SDS011;1496;51.404;7.232;2024-03-25T00:09:05;17.30;;;4.67;;
2972;SDS011;1496;51.404;7.232;2024-03-25T00:11:32;25.53;;;6.50;;
2972;SDS011;1496;51.404;7.232;2024-03-25T00:13:58;17.70;;;5.20;;
2972;SDS011;1496;51.404;7.232;2024-03-25T00:16:24;18.13;;;5.07;;
2972;SDS011;1496;51.404;7.232;2024-03-25T00:18:49;13.83;;;3.90;;
2972;SDS011;1496;51.404;7.232;2024-03-25T00:21:15;18.60;;;4.43;;
2972;SDS011;1496;51.404;7.232;2024-03-25T00:23:42;21.13;;;3.63;;
2972;SDS011;1496;51.404;7.232;2024-03-25T00:26:11;19.80;;;4.70;;
2972;SDS011;1496;51.404;7.232;2024-03-25T00:28:38;15.90;;;4.47;;
2972;SDS011;1496;51.404;7.232;2024-03-25T00:31:03;13.03;;;5.07;;
2972;SDS011;1496;51.404;7.232;2024-03-25T00:33:29;19.63;;;5.63;;
2972;SDS011;1496;51.404;7.232;2024-03-25T00:35:55;19.53;;;7.30;;
2972;SDS011;1496;51.404;7.232;2024-03-25T00:38:21;26.47;;;6.90;;
2972;SDS011;1496;51.404;7.232;2024-03-25T00:40:46;21.43;;;6.87;;
2972;SDS011;1496;51.404;7.232;2024-03-25T00:43:12;32.40;;;8.03;;
2972;SDS011;1496;51.404;7.232;2024-03-25T00:45:38;21.40;;;7.83;;
2972;SDS011;1496;51.404;7.232;2024-03-25T00:48:03;24.30;;;7.70;;
2972;SDS011;1496;51.404;7.232;2024-03-25T00:50:29;24.73;;;9.50;;
2972;SDS011;1496;51.404;7.232;2024-03-25T00:52:55;19.47;;;8.47;;
2972;SDS011;1496;51.404;7.232;2024-03-25T00:55:21;27.13;;;10.07;;
2972;SDS011;1496;51.404;7.232;2024-03-25T00:57:47;29.63;;;9.80;;
2972;SDS011;1496;51.404;7.232;2024-03-25T01:00:13;28.50;;;10.67;;
2972;SDS011;1496;51.404;7.232;2024-03-25T01:02:40;31.30;;;11.63;;
2972;SDS011;1496;51.404;7.232;2024-03-25T01:05:06;34.93;;;10.93;;
2972;SDS011;1496;51.404;7.232;2024-03-25T01:07:32;31.27;;;11.07;;
2972;SDS011;1496;51.404;7.232;2024-03-25T01:09:58;29.40;;;10.23;;
2972;SDS011;1496;51.404;7.232;2024-03-25T01:12:24;25.90;;;10.80;;
2972;SDS011;1496;51.404;7.232;2024-03-25T01:14:50;33.43;;;12.40;;
2972;SDS011;1496;51.404;7.232;2024-03-25T01:17:16;31.30;;;11.23;;
2972;SDS011;1496;51.404;7.232;2024-03-25T01:19:42;28.77;;;12.30;;
2972;SDS011;1496;51.404;7.232;2024-03-25T01:22:08;21.20;;;10.27;;
2972;SDS011;1496;51.404;7.232;2024-03-25T01:24:34;37.07;;;10.60;;
2972;SDS011;1496;51.404;7.232;2024-03-25T01:27:00;34.87;;;12.17;;
2972;SDS011;1496;51.404;7.232;2024-03-25T01:29:25;25.10;;;9.53;;
2972;SDS011;1496;51.404;7.232;2024-03-25T01:31:51;23.30;;;9.70;;
2972;SDS011;1496;51.404;7.232;2024-03-25T01:34:17;27.13;;;8.57;;
2972;SDS011;1496;51.404;7.232;2024-03-25T01:36:43;31.57;;;8.70;;
2972;SDS011;1496;51.404;7.232;2024-03-25T01:39:08;33.33;;;7.87;;
2972;SDS011;1496;51.404;7.232;2024-03-25T01:41:34;20.03;;;7.07;;
2972;SDS011;1496;51.404;7.232;2024-03-25T01:44:00;18.20;;;6.20;;
2972;SDS011;1496;51.404;7.232;2024-03-25T01:46:27;21.80;;;7.03;;
2972;SDS011;1496;51.404;7.232;2024-03-25T01:48:53;13.20;;;4.80;;
2972;SDS011;1496;51.404;7.232;2024-03-25T01:51:23;23.10;;;6.37;;
2972;SDS011;1496;51.404;7.232;2024-03-25T01:53:49;16.67;;;7.23;;
2972;SDS011;1496;51.404;7.232;2024-03-25T01:56:17;19.93;;;7.63;;
2972;SDS011;1496;51.404;7.232;2024-03-25T01:58:44;27.27;;;6.53;;
2972;SDS011;1496;51.404;7.232;2024-03-25T02:01:10;18.13;;;6.13;;
2972;SDS011;1496;51.404;7.232;2024-03-25T02:03:42;15.83;;;5.30;;
2972;SDS011;1496;51.404;7.232;2024-03-25T02:06:12;18.37;;;5.47;;
2972;SDS011;1496;51.404;7.232;2024-03-25T02:08:40;18.93;;;4.63;;
2972;SDS011;1496;51.404;7.232;2024-03-25T02:11:08;13.97;;;4.37;;
2972;SDS011;1496;51.404;7.232;2024-03-25T02:13:39;13.33;;;3.90;;
2972;SDS011;1496;51.404;7.232;2024-03-25T02:16:05;23.60;;;3.80;;
2972;SDS011;1496;51.404;7.232;2024-03-25T02:18:31;30.83;;;7.33;;
2972;SDS011;1496;51.404;7.232;2024-03-25T02:20:57;21.90;;;4.63;;
2972;SDS011;1496;51.404;7.232;2024-03-25T02:23:23;14.60;;;4.40;;
2972;SDS011;1496;51.404;7.232;2024-03-25T02:25:50;18.53;;;5.40;;
2972;SDS011;1496;51.404;7.232;2024-03-25T02:28:16;15.00;;;4.40;;
2972;SDS011;1496;51.404;7.232;2024-03-25T02:30:43;15.53;;;4.10;;
2972;SDS011;1496;51.404;7.232;2024-03-25T02:33:09;20.63;;;4.40;;
2972;SDS011;1496;51.404;7.232;2024-03-25T02:35:36;11.00;;;3.87;;
2972;SDS011;1496;51.404;7.232;2024-03-25T02:38:04;17.87;;;4.30;;
2972;SDS011;1496;51.404;7.232;2024-03-25T02:40:30;16.13;;;5.47;;
2972;SDS011;1496;51.404;7.232;2024-03-25T02:42:57;24.87;;;4.90;;
2972;SDS011;1496;51.404;7.232;2024-03-25T02:45:23;17.40;;;5.00;;
2972;SDS011;1496;51.404;7.232;2024-03-25T02:47:49;21.43;;;4.40;;
2972;SDS011;1496;51.404;7.232;2024-03-25T02:50:15;23.87;;;5.30;;
2972;SDS011;1496;51.404;7.232;2024-03-25T02:52:41;20.87;;;5.40;;
2972;SDS011;1496;51.404;7.232;2024-03-25T02:55:06;14.53;;;4.40;;
2972;SDS011;1496;51.404;7.232;2024-03-25T02:57:32;19.17;;;4.70;;
2972;SDS011;1496;51.404;7.232;2024-03-25T02:59:58;18.57;;;6.07;;
2972;SDS011;1496;51.404;7.232;2024-03-25T03:02:23;23.07;;;5.90;;
2972;SDS011;1496;51.404;7.232;2024-03-25T03:04:49;22.67;;;6.40;;
2972;SDS011;1496;51.404;7.232;2024-03-25T03:07:15;13.37;;;6.87;;
2972;SDS011;1496;51.404;7.232;2024-03-25T03:09:41;14.60;;;6.60;;
2972;SDS011;1496;51.404;7.232;2024-03-25T03:12:07;23.93;;;7.53;;
2972;SDS011;1496;51.404;7.232;2024-03-25T03:14:36;26.87;;;7.70;;
2972;SDS011;1496;51.404;7.232;2024-03-25T03:17:02;24.70;;;8.23;;
2972;SDS011;1496;51.404;7.232;2024-03-25T03:19:30;38.03;;;9.13;;
2972;SDS011;1496;51.404;7.232;2024-03-25T03:21:56;23.83;;;7.20;;
2972;SDS011;1496;51.404;7.232;2024-03-25T03:24:21;17.47;;;8.33;;
2972;SDS011;1496;51.404;7.232;2024-03-25T03:26:51;16.17;;;6.73;;
2972;SDS011;1496;51.404;7.232;2024-03-25T03:29:27;21.33;;;7.37;;
2972;SDS011;1496;51.404;7.232;2024-03-25T03:31:52;22.20;;;7.20;;
2972;SDS011;1496;51.404;7.232;2024-03-25T03:34:18;23.40;;;6.63;;
2972;SDS011;1496;51.404;7.232;2024-03-25T03:36:44;27.67;;;7.20;;
2972;SDS011;1496;51.404;7.232;2024-03-25T03:39:09;22.70;;;8.60;;
2972;SDS011;1496;51.404;7.232;2024-03-25T03:41:35;21.53;;;8.13;;
2972;SDS011;1496;51.404;7.232;2024-03-25T03:44:01;14.83;;;7.07;;
2972;SDS011;1496;51.404;7.232;2024-03-25T03:46:27;21.40;;;7.27;;
2972;SDS011;1496;51.404;7.232;2024-03-25T03:48:53;18.80;;;7.87;;
2972;SDS011;1496;51.404;7.232;2024-03-25T03:51:19;21.13;;;8.37;;
2972;SDS011;1496;51.404;7.232;2024-03-25T03:53:44;22.73;;;8.20;;
2972;SDS011;1496;51.404;7.232;2024-03-25T03:56:10;40.20;;;8.93;;
2972;SDS011;1496;51.404;7.232;2024-03-25T03:58:35;30.93;;;10.17;;
2972;SDS011;1496;51.404;7.232;2024-03-25T04:01:01;21.23;;;8.57;;
2972;SDS011;1496;51.404;7.232;2024-03-25T04:03:28;26.87;;;9.07;;
2972;SDS011;1496;51.404;7.232;2024-03-25T04:05:54;24.00;;;9.30;;
2972;SDS011;1496;51.404;7.232;2024-03-25T04:08:21;26.83;;;10.40;;
2972;SDS011;1496;51.404;7.232;2024-03-25T04:10:46;21.70;;;8.77;;
2972;SDS011;1496;51.404;7.232;2024-03-25T04:13:12;24.37;;;9.37;;
2972;SDS011;1496;51.404;7.232;2024-03-25T04:15:38;26.83;;;8.70;;
2972;SDS011;1496;51.404;7.232;2024-03-25T04:18:05;23.87;;;9.80;;
2972;SDS011;1496;51.404;7.232;2024-03-25T04:20:38;25.10;;;8.73;;
2972;SDS011;1496;51.404;7.232;2024-03-25T04:23:04;17.80;;;8.47;;
2972;SDS011;1496;51.404;7.232;2024-03-25T04:25:32;18.43;;;9.03;;
2972;SDS011;1496;51.404;7.232;2024-03-25T04:27:58;25.47;;;9.53;;
2972;SDS011;1496;51.404;7.232;2024-03-25T04:30:24;24.77;;;8.97;;
2972;SDS011;1496;51.404;7.232;2024-03-25T04:32:50;15.27;;;8.40;;
2972;SDS011;1496;51.404;7.232;2024-03-25T04:35:15;22.50;;;8.53;;
2972;SDS011;1496;51.404;7.232;2024-03-25T04:37:41;22.60;;;8.10;;
2972;SDS011;1496;51.404;7.232;2024-03-25T04:40:07;23.03;;;9.23;;
2972;SDS011;1496;51.404;7.232;2024-03-25T04:42:33;22.70;;;8.67;;
2972;SDS011;1496;51.404;7.232;2024-03-25T04:44:59;27.03;;;10.60;;
2972;SDS011;1496;51.404;7.232;2024-03-25T04:47:24;27.73;;;10.20;;
2972;SDS011;1496;51.404;7.232;2024-03-25T04:49:50;16.33;;;7.90;;
2972;SDS011;1496;51.404;7.232;2024-03-25T04:52:16;21.77;;;9.27;;
2972;SDS011;1496;51.404;7.232;2024-03-25T04:54:42;19.03;;;8.20;;
2972;SDS011;1496;51.404;7.232;2024-03-25T04:57:08;24.10;;;9.07;;
2972;SDS011;1496;51.404;7.232;2024-03-25T04:59:34;28.43;;;9.07;;
2972;SDS011;1496;51.404;7.232;2024-03-25T05:02:00;19.77;;;7.30;;
2972;SDS011;1496;51.404;7.232;2024-03-25T05:04:26;14.67;;;6.97;;
2972;SDS011;1496;51.404;7.232;2024-03-25T05:06:52;25.50;;;9.50;;
2972;SDS011;1496;51.404;7.232;2024-03-25T05:09:17;22.93;;;7.17;;
2972;SDS011;1496;51.404;7.232;2024-03-25T05:11:43;26.87;;;7.80;;
2972;SDS011;1496;51.404;7.232;2024-03-25T05:14:09;21.50;;;6.80;;
2972;SDS011;1496;51.404;7.232;2024-03-25T05:16:35;15.13;;;6.17;;
2972;SDS011;1496;51.404;7.232;2024-03-25T05:19:01;34.63;;;7.50;;
2972;SDS011;1496;51.404;7.232;2024-03-25T05:21:28;22.30;;;8.60;;
2972;SDS011;1496;51.404;7.232;2024-03-25T05:23:57;18.90;;;7.20;;
2972;SDS011;1496;51.404;7.232;2024-03-25T05:26:24;40.43;;;8.40;;
2972;SDS011;1496;51.404;7.232;2024-03-25T05:28:53;18.33;;;6.73;;
2972;SDS011;1496;51.404;7.232;2024-03-25T05:31:22;18.87;;;6.97;;
2972;SDS011;1496;51.404;7.232;2024-03-25T05:33:49;16.53;;;6.80;;
2972;SDS011;1496;51.404;7.232;2024-03-25T05:36:15;22.90;;;7.17;;
2972;SDS011;1496;51.404;7.232;2024-03-25T05:38:41;17.20;;;7.77;;
2972;SDS011;1496;51.404;7.232;2024-03-25T05:41:09;23.63;;;8.10;;
2972;SDS011;1496;51.404;7.232;2024-03-25T05:43:36;24.20;;;8.40;;
2972;SDS011;1496;51.404;7.232;2024-03-25T05:46:02;18.20;;;6.53;;
2972;SDS011;1496;51.404;7.232;2024-03-25T05:48:28;23.80;;;8.23;;
2972;SDS011;1496;51.404;7.232;2024-03-25T05:53:32;21.53;;;7.20;;
2972;SDS011;1496;51.404;7.232;2024-03-25T05:55:58;24.93;;;7.27;;
2972;SDS011;1496;51.404;7.232;2024-03-25T05:58:24;20.77;;;7.73;;
2972;SDS011;1496;51.404;7.232;2024-03-25T06:00:51;10.30;;;5.93;;
2972;SDS011;1496;51.404;7.232;2024-03-25T06:03:20;15.97;;;5.87;;
2972;SDS011;1496;51.404;7.232;2024-03-25T06:05:46;17.93;;;6.40;;
2972;SDS011;1496;51.404;7.232;2024-03-25T06:08:12;21.70;;;6.83;;
2972;SDS011;1496;51.404;7.232;2024-03-25T06:10:50;18.00;;;5.97;;
2972;SDS011;1496;51.404;7.232;2024-03-25T06:13:19;20.17;;;6.40;;
2972;SDS011;1496;51.404;7.232;2024-03-25T06:15:45;21.10;;;6.13;;
2972;SDS011;1496;51.404;7.232;2024-03-25T06:18:11;12.53;;;5.43;;
2972;SDS011;1496;51.404;7.232;2024-03-25T06:20:36;20.00;;;6.37;;
2972;SDS011;1496;51.404;7.232;2024-03-25T06:23:02;21.47;;;5.93;;
2972;SDS011;1496;51.404;7.232;2024-03-25T06:25:28;14.83;;;5.53;;
2972;SDS011;1496;51.404;7.232;2024-03-25T06:27:55;17.80;;;5.53;;
2972;SDS011;1496;51.404;7.232;2024-03-25T06:30:21;18.43;;;6.27;;
2972;SDS011;1496;51.404;7.232;2024-03-25T06:33:05;19.63;;;6.30;;
2972;SDS011;1496;51.404;7.232;2024-03-25T06:35:50;16.23;;;6.23;;
2972;SDS011;1496;51.404;7.232;2024-03-25T06:38:17;11.20;;;5.20;;
2972;SDS011;1496;51.404;7.232;2024-03-25T06:40:43;19.63;;;6.40;;
2972;SDS011;1496;51.404;7.232;2024-03-25T06:43:10;21.50;;;6.03;;
2972;SDS011;1496;51.404;7.232;2024-03-25T06:45:35;20.93;;;6.80;;
2972;SDS011;1496;51.404;7.232;2024-03-25T06:48:01;26.33;;;5.57;;
2972;SDS011;1496;51.404;7.232;2024-03-25T06:50:27;16.03;;;6.23;;
2972;SDS011;1496;51.404;7.232;2024-03-25T06:52:52;14.63;;;5.50;;
2972;SDS011;1496;51.404;7.232;2024-03-25T06:55:18;15.10;;;5.83;;
2972;SDS011;1496;51.404;7.232;2024-03-25T06:57:47;12.30;;;5.33;;
2972;SDS011;1496;51.404;7.232;2024-03-25T07:00:13;25.33;;;6.70;;
2972;SDS011;1496;51.404;7.232;2024-03-25T07:02:39;23.67;;;6.53;;
2972;SDS011;1496;51.404;7.232;2024-03-25T07:05:07;34.27;;;6.40;;
2972;SDS011;1496;51.404;7.232;2024-03-25T07:07:38;16.43;;;5.57;;
2972;SDS011;1496;51.404;7.232;2024-03-25T07:10:04;16.23;;;4.93;;
2972;SDS011;1496;51.404;7.232;2024-03-25T07:12:31;22.40;;;6.30;;
2972;SDS011;1496;51.404;7.232;2024-03-25T07:14:56;12.37;;;4.83;;
2972;SDS011;1496;51.404;7.232;2024-03-25T07:17:23;28.30;;;5.33;;
2972;SDS011;1496;51.404;7.232;2024-03-25T07:19:50;17.17;;;5.70;;
2972;SDS011;1496;51.404;7.232;2024-03-25T07:22:16;19.53;;;5.43;;
2972;SDS011;1496;51.404;7.232;2024-03-25T07:24:42;21.63;;;4.40;;
2972;SDS011;1496;51.404;7.232;2024-03-25T07:27:08;22.70;;;5.00;;
2972;SDS011;1496;51.404;7.232;2024-03-25T07:29:35;16.00;;;5.53;;
2972;SDS011;1496;51.404;7.232;2024-03-25T07:32:01;18.30;;;4.73;;
2972;SDS011;1496;51.404;7.232;2024-03-25T07:34:26;17.40;;;4.37;;
2972;SDS011;1496;51.404;7.232;2024-03-25T07:36:52;20.93;;;4.77;;
2972;SDS011;1496;51.404;7.232;2024-03-25T07:39:18;18.13;;;4.40;;
2972;SDS011;1496;51.404;7.232;2024-03-25T07:41:43;14.43;;;5.30;;
2972;SDS011;1496;51.404;7.232;2024-03-25T07:44:09;16.27;;;4.83;;
2972;SDS011;1496;51.404;7.232;2024-03-25T07:46:34;26.20;;;4.87;;
2972;SDS011;1496;51.404;7.232;2024-03-25T07:49:00;15.60;;;4.97;;
2972;SDS011;1496;51.404;7.232;2024-03-25T07:51:26;12.47;;;4.33;;
2972;SDS011;1496;51.404;7.232;2024-03-25T07:53:52;22.17;;;4.17;;
2972;SDS011;1496;51.404;7.232;2024-03-25T07:56:17;22.70;;;6.10;;
2972;SDS011;1496;51.404;7.232;2024-03-25T07:58:43;25.97;;;4.27;;
2972;SDS011;1496;51.404;7.232;2024-03-25T08:01:09;17.00;;;4.67;;
2972;SDS011;1496;51.404;7.232;2024-03-25T08:03:35;22.47;;;5.40;;
2972;SDS011;1496;51.404;7.232;2024-03-25T08:06:00;21.80;;;5.10;;
2972;SDS011;1496;51.404;7.232;2024-03-25T08:08:29;21.80;;;4.87;;
2972;SDS011;1496;51.404;7.232;2024-03-25T08:10:55;14.10;;;4.00;;
2972;SDS011;1496;51.404;7.232;2024-03-25T08:13:21;30.93;;;5.93;;
2972;SDS011;1496;51.404;7.232;2024-03-25T08:15:47;19.13;;;4.87;;
2972;SDS011;1496;51.404;7.232;2024-03-25T08:18:12;20.70;;;4.17;;
2972;SDS011;1496;51.404;7.232;2024-03-25T08:20:38;27.20;;;5.27;;
2972;SDS011;1496;51.404;7.232;2024-03-25T08:23:04;27.33;;;4.87;;
2972;SDS011;1496;51.404;7.232;2024-03-25T08:25:30;28.50;;;6.47;;
2972;SDS011;1496;51.404;7.232;2024-03-25T08:27:56;24.30;;;4.40;;
2972;SDS011;1496;51.404;7.232;2024-03-25T08:30:23;23.70;;;5.63;;
2972;SDS011;1496;51.404;7.232;2024-03-25T08:32:49;23.03;;;5.37;;
2972;SDS011;1496;51.404;7.232;2024-03-25T08:35:15;30.33;;;5.07;;
2972;SDS011;1496;51.404;7.232;2024-03-25T08:37:41;29.60;;;5.37;;
2972;SDS011;1496;51.404;7.232;2024-03-25T08:40:08;28.30;;;5.47;;
2972;SDS011;1496;51.404;7.232;2024-03-25T08:42:34;29.50;;;5.07;;
2972;SDS011;1496;51.404;7.232;2024-03-25T08:45:00;25.57;;;4.50;;
2972;SDS011;1496;51.404;7.232;2024-03-25T08:47:26;29.20;;;4.37;;
2972;SDS011;1496;51.404;7.232;2024-03-25T08:49:52;29.73;;;5.00;;
2972;SDS011;1496;51.404;7.232;2024-03-25T08:52:18;29.10;;;4.30;;
2972;SDS011;1496;51.404;7.232;2024-03-25T08:54:43;29.83;;;4.37;;
2972;SDS011;1496;51.404;7.232;2024-03-25T08:57:09;24.90;;;3.57;;
2972;SDS011;1496;51.404;7.232;2024-03-25T08:59:35;27.03;;;3.47;;
2972;SDS011;1496;51.404;7.232;2024-03-25T09:02:01;37.20;;;5.23;;
2972;SDS011;1496;51.404;7.232;2024-03-25T09:04:26;30.03;;;3.80;;
2972;SDS011;1496;51.404;7.232;2024-03-25T09:06:55;28.27;;;4.10;;
2972;SDS011;1496;51.404;7.232;2024-03-25T09:09:25;24.10;;;3.30;;
2972;SDS011;1496;51.404;7.232;2024-03-25T09:12:10;17.77;;;2.50;;
2972;SDS011;1496;51.404;7.232;2024-03-25T09:14:36;18.43;;;3.10;;
2972;SDS011;1496;51.404;7.232;2024-03-25T09:17:03;12.83;;;2.97;;
2972;SDS011;1496;51.404;7.232;2024-03-25T09:19:29;10.77;;;1.80;;
2972;SDS011;1496;51.404;7.232;2024-03-25T09:21:55;12.87;;;2.20;;
2972;SDS011;1496;51.404;7.232;2024-03-25T09:24:20;7.93;;;2.30;;
2972;SDS011;1496;51.404;7.232;2024-03-25T09:26:46;13.57;;;2.20;;
2972;SDS011;1496;51.404;7.232;2024-03-25T09:29:15;9.13;;;1.90;;
2972;SDS011;1496;51.404;7.232;2024-03-25T09:31:41;8.43;;;2.50;;
2972;SDS011;1496;51.404;7.232;2024-03-25T09:34:06;10.53;;;2.33;;
2972;SDS011;1496;51.404;7.232;2024-03-25T09:36:32;10.63;;;2.37;;
2972;SDS011;1496;51.404;7.232;2024-03-25T09:38:58;16.43;;;2.50;;
2972;SDS011;1496;51.404;7.232;2024-03-25T09:41:27;13.60;;;3.40;;
2972;SDS011;1496;51.404;7.232;2024-03-25T09:43:56;10.67;;;1.50;;
2972;SDS011;1496;51.404;7.232;2024-03-25T09:46:22;6.17;;;2.70;;
2972;SDS011;1496;51.404;7.232;2024-03-25T09:48:49;6.33;;;2.00;;
2972;SDS011;1496;51.404;7.232;2024-03-25T09:51:17;8.40;;;2.10;;
2972;SDS011;1496;51.404;7.232;2024-03-25T09:53:44;13.23;;;2.73;;
2972;SDS011;1496;51.404;7.232;2024-03-25T09:56:13;5.60;;;2.00;;
2972;SDS011;1496;51.404;7.232;2024-03-25T09:58:39;7.17;;;2.10;;
2972;SDS011;1496;51.404;7.232;2024-03-25T10:01:05;7.80;;;1.90;;
2972;SDS011;1496;51.404;7.232;2024-03-25T10:03:31;11.23;;;2.30;;
2972;SDS011;1496;51.404;7.232;2024-03-25T10:05:56;10.13;;;2.53;;
2972;SDS011;1496;51.404;7.232;2024-03-25T10:08:22;9.30;;;1.93;;
2972;SDS011;1496;51.404;7.232;2024-03-25T10:10:48;5.90;;;2.30;;
2972;SDS011;1496;51.404;7.232;2024-03-25T10:13:16;14.07;;;2.70;;
2972;SDS011;1496;51.404;7.232;2024-03-25T10:15:43;4.93;;;1.60;;
2972;SDS011;1496;51.404;7.232;2024-03-25T10:18:11;6.77;;;1.87;;
2972;SDS011;1496;51.404;7.232;2024-03-25T10:20:37;5.13;;;1.53;;
2972;SDS011;1496;51.404;7.232;2024-03-25T10:23:03;12.27;;;1.70;;
2972;SDS011;1496;51.404;7.232;2024-03-25T10:25:30;8.43;;;2.60;;
2972;SDS011;1496;51.404;7.232;2024-03-25T10:30:23;5.43;;;1.50;;
2972;SDS011;1496;51.404;7.232;2024-03-25T10:33:04;7.23;;;1.80;;
2972;SDS011;1496;51.404;7.232;2024-03-25T10:35:31;6.60;;;2.00;;
2972;SDS011;1496;51.404;7.232;2024-03-25T10:37:59;7.33;;;1.80;;
2972;SDS011;1496;51.404;7.232;2024-03-25T10:40:29;15.67;;;4.10;;
2972;SDS011;1496;51.404;7.232;2024-03-25T10:45:29;9.47;;;1.53;;
2972;SDS011;1496;51.404;7.232;2024-03-25T10:47:57;6.30;;;1.93;;
2972;SDS011;1496;51.404;7.232;2024-03-25T10:50:28;9.07;;;1.60;;
2972;SDS011;1496;51.404;7.232;2024-03-25T10:52:54;10.20;;;2.00;;
2972;SDS011;1496;51.404;7.232;2024-03-25T10:55:22;4.40;;;2.10;;
2972;SDS011;1496;51.404;7.232;2024-03-25T10:57:48;6.57;;;1.67;;
2972;SDS011;1496;51.404;7.232;2024-03-25T11:00:15;12.40;;;1.70;;
2972;SDS011;1496;51.404;7.232;2024-03-25T11:02:42;6.03;;;1.87;;
2972;SDS011;1496;51.404;7.232;2024-03-25T11:05:09;4.00;;;2.00;;
2972;SDS011;1496;51.404;7.232;2024-03-25T11:07:35;7.87;;;1.97;;
2972;SDS011;1496;51.404;7.232;2024-03-25T11:10:07;10.23;;;1.43;;
2972;SDS011;1496;51.404;7.232;2024-03-25T11:12:35;8.43;;;2.00;;
2972;SDS011;1496;51.404;7.232;2024-03-25T11:15:04;4.80;;;1.70;;
2972;SDS011;1496;51.404;7.232;2024-03-25T11:17:32;10.07;;;2.50;;
2972;SDS011;1496;51.404;7.232;2024-03-25T11:20:08;4.70;;;2.00;;
2972;SDS011;1496;51.404;7.232;2024-03-25T11:22:35;6.60;;;1.97;;
2972;SDS011;1496;51.404;7.232;2024-03-25T11:25:12;5.17;;;1.57;;
2972;SDS011;1496;51.404;7.232;2024-03-25T11:27:38;16.33;;;2.20;;
2972;SDS011;1496;51.404;7.232;2024-03-25T11:30:05;6.57;;;1.57;;
2972;SDS011;1496;51.404;7.232;2024-03-25T11:32:42;8.20;;;1.57;;
2972;SDS011;1496;51.404;7.232;2024-03-25T11:35:09;13.33;;;1.67;;
2972;SDS011;1496;51.404;7.232;2024-03-25T11:37:41;5.70;;;2.07;;
2972;SDS011;1496;51.404;7.232;2024-03-25T11:40:10;10.37;;;1.90;;
2972;SDS011;1496;51.404;7.232;2024-03-25T11:42:39;3.53;;;1.40;;
2972;SDS011;1496;51.404;7.232;2024-03-25T11:45:20;6.33;;;2.20;;
2972;SDS011;1496;51.404;7.232;2024-03-25T11:47:48;8.23;;;1.83;;
2972;SDS011;1496;51.404;7.232;2024-03-25T11:50:15;6.57;;;2.10;;
2972;SDS011;1496;51.404;7.232;2024-03-25T11:52:42;4.73;;;1.40;;
2972;SDS011;1496;51.404;7.232;2024-03-25T11:55:07;5.17;;;2.03;;
2972;SDS011;1496;51.404;7.232;2024-03-25T11:57:38;5.93;;;1.37;;
2972;SDS011;1496;51.404;7.232;2024-03-25T12:00:04;3.87;;;1.67;;
2972;SDS011;1496;51.404;7.232;2024-03-25T12:02:38;5.60;;;1.40;;
2972;SDS011;1496;51.404;7.232;2024-03-25T12:05:08;5.80;;;1.47;;
2972;SDS011;1496;51.404;7.232;2024-03-25T12:07:34;6.10;;;1.70;;
2972;SDS011;1496;51.404;7.232;2024-03-25T12:10:01;7.00;;;1.97;;
2972;SDS011;1496;51.404;7.232;2024-03-25T12:12:46;7.63;;;2.37;;
2972;SDS011;1496;51.404;7.232;2024-03-25T12:15:12;5.27;;;1.87;;
2972;SDS011;1496;51.404;7.232;2024-03-25T12:17:38;10.87;;;2.07;;
2972;SDS011;1496;51.404;7.232;2024-03-25T12:20:07;6.33;;;1.50;;
2972;SDS011;1496;51.404;7.232;2024-03-25T12:22:34;4.67;;;1.87;;
2972;SDS011;1496;51.404;7.232;2024-03-25T12:25:01;4.83;;;1.50;;
2972;SDS011;1496;51.404;7.232;2024-03-25T12:27:29;7.57;;;1.50;;
2972;SDS011;1496;51.404;7.232;2024-03-25T12:30:01;6.67;;;1.93;;
2972;SDS011;1496;51.404;7.232;2024-03-25T12:32:40;11.67;;;2.00;;
2972;SDS011;1496;51.404;7.232;2024-03-25T12:35:11;6.10;;;1.53;;
2972;SDS011;1496;51.404;7.232;2024-03-25T12:37:37;6.83;;;1.80;;
2972;SDS011;1496;51.404;7.232;2024-03-25T12:40:04;9.73;;;1.70;;
2972;SDS011;1496;51.404;7.232;2024-03-25T12:42:31;3.63;;;1.97;;
2972;SDS011;1496;51.404;7.232;2024-03-25T12:44:57;6.87;;;1.80;;
2972;SDS011;1496;51.404;7.232;2024-03-25T12:47:23;3.77;;;1.30;;
2972;SDS011;1496;51.404;7.232;2024-03-25T12:49:49;9.83;;;1.80;;
2972;SDS011;1496;51.404;7.232;2024-03-25T12:52:14;4.70;;;1.63;;
2972;SDS011;1496;51.404;7.232;2024-03-25T12:54:40;6.20;;;2.60;;
2972;SDS011;1496;51.404;7.232;2024-03-25T12:57:09;8.13;;;2.10;;
2972;SDS011;1496;51.404;7.232;2024-03-25T12:59:36;4.10;;;1.77;;
2972;SDS011;1496;51.404;7.232;2024-03-25T13:02:01;4.90;;;1.50;;
2972;SDS011;1496;51.404;7.232;2024-03-25T13:04:28;3.53;;;1.63;;
2972;SDS011;1496;51.404;7.232;2024-03-25T13:06:53;7.40;;;1.43;;
2972;SDS011;1496;51.404;7.232;2024-03-25T13:09:19;6.33;;;1.17;;
2972;SDS011;1496;51.404;7.232;2024-03-25T13:11:45;4.93;;;1.33;;
2972;SDS011;1496;51.404;7.232;2024-03-25T13:14:12;7.80;;;1.40;;
2972;SDS011;1496;51.404;7.232;2024-03-25T13:16:42;9.83;;;1.57;;
2972;SDS011;1496;51.404;7.232;2024-03-25T13:19:08;5.50;;;1.57;;
2972;SDS011;1496;51.404;7.232;2024-03-25T13:21:34;6.07;;;1.80;;
2972;SDS011;1496;51.404;7.232;2024-03-25T13:23:59;3.43;;;1.50;;
2972;SDS011;1496;51.404;7.232;2024-03-25T13:26:25;6.30;;;2.07;;
2972;SDS011;1496;51.404;7.232;2024-03-25T13:28:53;8.80;;;2.30;;
2972;SDS011;1496;51.404;7.232;2024-03-25T13:31:19;4.57;;;1.90;;
2972;SDS011;1496;51.404;7.232;2024-03-25T13:33:46;3.67;;;1.50;;
2972;SDS011;1496;51.404;7.232;2024-03-25T13:36:11;5.53;;;1.77;;
2972;SDS011;1496;51.404;7.232;2024-03-25T13:38:37;7.43;;;1.70;;
2972;SDS011;1496;51.404;7.232;2024-03-25T13:41:03;3.83;;;1.30;;
2972;SDS011;1496;51.404;7.232;2024-03-25T13:43:29;7.70;;;1.93;;
2972;SDS011;1496;51.404;7.232;2024-03-25T13:45:55;10.77;;;1.77;;
2972;SDS011;1496;51.404;7.232;2024-03-25T13:48:21;7.37;;;1.63;;
2972;SDS011;1496;51.404;7.232;2024-03-25T13:50:47;4.33;;;1.77;;
2972;SDS011;1496;51.404;7.232;2024-03-25T13:53:13;6.60;;;1.43;;
2972;SDS011;1496;51.404;7.232;2024-03-25T13:55:39;5.90;;;1.47;;
2972;SDS011;1496;51.404;7.232;2024-03-25T13:58:05;3.20;;;1.63;;
2972;SDS011;1496;51.404;7.232;2024-03-25T14:00:33;3.63;;;1.70;;
2972;SDS011;1496;51.404;7.232;2024-03-25T14:03:01;5.80;;;1.50;;
2972;SDS011;1496;51.404;7.232;2024-03-25T14:05:27;6.73;;;1.47;;
2972;SDS011;1496;51.404;7.232;2024-03-25T14:07:53;9.03;;;1.80;;
2972;SDS011;1496;51.404;7.232;2024-03-25T14:10:19;4.57;;;1.60;;
2972;SDS011;1496;51.404;7.232;2024-03-25T14:12:46;8.33;;;1.40;;
2972;SDS011;1496;51.404;7.232;2024-03-25T14:15:12;4.57;;;1.70;;
2972;SDS011;1496;51.404;7.232;2024-03-25T14:17:37;5.23;;;1.60;;
2972;SDS011;1496;51.404;7.232;2024-03-25T14:20:03;5.17;;;1.33;;
2972;SDS011;1496;51.404;7.232;2024-03-25T14:22:31;8.77;;;1.50;;
2972;SDS011;1496;51.404;7.232;2024-03-25T14:24:57;3.40;;;1.37;;
2972;SDS011;1496;51.404;7.232;2024-03-25T14:27:24;2.07;;;1.07;;
2972;SDS011;1496;51.404;7.232;2024-03-25T14:29:50;4.50;;;1.63;;
2972;SDS011;1496;51.404;7.232;2024-03-25T14:32:19;8.20;;;1.40;;
2972;SDS011;1496;51.404;7.232;2024-03-25T14:34:46;5.53;;;1.43;;
2972;SDS011;1496;51.404;7.232;2024-03-25T14:37:13;5.33;;;1.90;;
2972;SDS011;1496;51.404;7.232;2024-03-25T14:39:39;3.70;;;1.43;;
2972;SDS011;1496;51.404;7.232;2024-03-25T14:42:07;10.03;;;1.80;;
2972;SDS011;1496;51.404;7.232;2024-03-25T14:44:33;5.27;;;1.40;;
2972;SDS011;1496;51.404;7.232;2024-03-25T14:47:00;6.13;;;1.57;;
2972;SDS011;1496;51.404;7.232;2024-03-25T14:49:34;5.90;;;1.17;;
2972;SDS011;1496;51.404;7.232;2024-03-25T14:52:00;9.20;;;1.43;;
2972;SDS011;1496;51.404;7.232;2024-03-25T14:54:32;9.97;;;1.73;;
2972;SDS011;1496;51.404;7.232;2024-03-25T14:56:59;3.40;;;1.30;;
2972;SDS011;1496;51.404;7.232;2024-03-25T14:59:26;5.53;;;1.13;;
2972;SDS011;1496;51.404;7.232;2024-03-25T15:01:58;5.03;;;1.60;;
2972;SDS011;1496;51.404;7.232;2024-03-25T15:04:26;2.87;;;1.40;;
2972;SDS011;1496;51.404;7.232;2024-03-25T15:06:55;3.00;;;1.77;;
2972;SDS011;1496;51.404;7.232;2024-03-25T15:09:22;4.10;;;1.53;;
2972;SDS011;1496;51.404;7.232;2024-03-25T15:11:48;7.13;;;1.73;;